Pagrindinis puslapis
METAR-TAF:

METAR-TAF

Oro uostai :

Tôlanaro, Madagaskaras

platuma: 25-02S, ilguma: 046-57E, Aukštis: 8 m

Dabartinis oras

Ataskaita buvo paskelbta 1 valandą ir 2 minutes, ne 21:00 UTC
Vėjas 10 kt iš Rytų
Temperatūra 25°C
Drėgmė 89%
Slėgis 1019 hPa
Matomumas 10 km arba daugiau
Išsisklaidę debesys ne aukštis 1600 ft
Išsisklaidę debesys ne aukštis 3300 ft
Liūtis kaimynystėje

METAR: FMSD 122100Z 08010KT 9999 VCSH SCT016 SCT033 25/23 Q1019

Laikas: 01:02 (22:02 UTC)

Prognozė

Ataskaita buvo paskelbta 5 valandos ir 2 minutes, ne 17:00 UTC
Prognozė galioja nuo 12 metu 18 UTC su 13 metu 18 UTC
Vėjas 12 kt iš Rytų
Matomumas 10 km arba daugiau
Mažai debesys ne aukštis 1600 ft
Su prošvaistėmis ne aukštis 3300 ft
Tikimybė 40% :
Laikinai
nuo 12 metu 20 UTC su 13 metu 12 UTC
Matomumas: 4500 m
lietus

TAF: FMSD 121700Z 1218/1318 08012KT 9999 FEW016 BKN033 PROB40 TEMPO 1220/1312 4500 SHRA

Orai ataskaitas ir orų prognozės (METAR, TAF).

turimą stotys yra geltonos ir raudonos taškus žemėlapyje.

Perkelti pele per norėdami pamatyti stoties vardą.

Tada spustelėkite, norėdami matyti oro stebėjimo ir prognozės.

Norėdami pakeisti žemėlapį: spustelėkite ant žalios mygtukų su juodo kryžiaus žemyn,; žalią mygtuką su brūkšneliu, jei norite nutolinti; arba žalių rodyklių gretimoms žemėlapius.


METAR-TAF: